Time;durP1;ratioP1;P1;durP2;ratioP2;P2;SDS_P1;SDS_P2;PMS_P1;PMS_P2;Temp;Humidity;BMP_temperature;BMP_pressure;BME280_temperature;BME280_humidity;BME280_pressure;Samples;Min_cycle;Max_cycle;Signal;HPM_P1;HPM_P2
2022/02/25 00:02:09;;;;;;;;;1.50;1.50;;;;;7.22;52.82;101873.19;5068793;28;45322;-48
2022/02/25 00:04:34;;;;;;;;;3.00;2.00;;;;;7.23;52.99;101872.34;5063469;28;45372;-50
2022/02/25 00:07:00;;;;;;;;;3.75;2.00;;;;;7.21;52.97;101881.88;5059659;28;45310;-49
2022/02/25 00:09:25;;;;;;;;;2.75;2.75;;;;;7.15;53.10;101874.81;5059631;28;45386;-48
2022/02/25 00:11:51;;;;;;;;;4.50;2.25;;;;;7.15;52.93;101883.53;5060046;28;45591;-47
2022/02/25 00:14:17;;;;;;;;;1.25;1.25;;;;;7.13;53.06;101889.56;5059508;28;45173;-50
2022/02/25 00:16:42;;;;;;;;;2.75;2.75;;;;;7.10;53.20;101890.41;5059613;28;45436;-48
2022/02/25 00:19:07;;;;;;;;;1.75;1.00;;;;;7.06;53.19;101880.75;5058141;28;45334;-49
2022/02/25 00:21:33;;;;;;;;;2.00;2.00;;;;;7.08;53.17;101894.75;5059775;28;45231;-50
2022/02/25 00:23:58;;;;;;;;;2.00;1.50;;;;;7.04;53.01;101887.69;5059199;28;45208;-52
2022/02/25 00:26:24;;;;;;;;;2.00;0.75;;;;;7.02;53.28;101892.00;5059644;28;46280;-51
2022/02/25 00:28:49;;;;;;;;;1.75;1.25;;;;;6.96;53.07;101886.66;5059414;28;45174;-50
2022/02/25 00:31:15;;;;;;;;;5.00;2.75;;;;;6.93;52.99;101895.34;5059612;28;45232;-51
2022/02/25 00:33:40;;;;;;;;;2.00;0.75;;;;;6.93;53.31;101897.03;5062306;28;45498;-51
2022/02/25 00:36:05;;;;;;;;;2.25;1.25;;;;;6.92;53.20;101903.16;5061791;28;45316;-52
2022/02/25 00:38:31;;;;;;;;;3.75;2.00;;;;;6.90;53.41;101907.44;5062753;28;45260;-49
2022/02/25 00:40:56;;;;;;;;;4.00;2.00;;;;;6.88;53.36;101910.03;5061532;28;45505;-52
2022/02/25 00:43:22;;;;;;;;;11.25;3.00;;;;;6.87;53.22;101912.59;5062569;28;45611;-51
2022/02/25 00:45:47;;;;;;;;;10.25;7.00;;;;;6.88;53.45;101911.75;5062747;28;45390;-51
2022/02/25 00:48:13;;;;;;;;;16.75;12.75;;;;;6.86;53.21;101919.56;5062412;28;45434;-52
2022/02/25 00:50:38;;;;;;;;;11.25;9.25;;;;;6.86;53.36;101926.53;5062823;28;45380;-52
2022/02/25 00:53:03;;;;;;;;;19.75;16.75;;;;;6.82;53.26;101925.59;5062637;28;45496;-52
2022/02/25 00:55:29;;;;;;;;;30.50;21.75;;;;;6.82;53.33;101923.84;5061119;28;47224;-51
2022/02/25 00:57:57;;;;;;;;;25.50;18.25;;;;;6.80;53.56;101930.75;5061249;28;45328;-52
2022/02/25 01:00:23;;;;;;;;;24.25;16.75;;;;;6.76;53.53;101928.94;5062825;28;45441;-52
2022/02/25 01:02:49;;;;;;;;;25.00;16.50;;;;;6.74;53.53;101928.06;5074963;28;45632;-50
2022/02/25 01:05:14;;;;;;;;;9.75;8.25;;;;;6.73;53.48;101931.50;5062515;28;46000;-52
2022/02/25 01:07:41;;;;;;;;;5.75;2.00;;;;;6.72;53.58;101941.94;5062178;28;45445;-53
2022/02/25 01:10:08;;;;;;;;;2.50;2.50;;;;;6.72;53.62;101932.34;5062477;28;45327;-52
2022/02/25 01:12:34;;;;;;;;;1.75;1.00;;;;;6.71;53.63;101938.44;5060884;28;45340;-51
2022/02/25 01:15:00;;;;;;;;;2.75;2.25;;;;;6.70;53.49;101938.41;5062392;28;47005;-51
2022/02/25 01:17:26;;;;;;;;;3.00;1.75;;;;;6.68;53.56;101935.75;5061976;28;45267;-52
2022/02/25 01:19:52;;;;;;;;;1.00;1.00;;;;;6.66;53.51;101942.69;5062244;28;45157;-48
2022/02/25 01:22:17;;;;;;;;;5.50;3.00;;;;;6.63;53.61;101940.88;5062115;28;45235;-50
2022/02/25 01:24:43;;;;;;;;;3.25;1.75;;;;;6.64;53.82;101946.97;5062013;28;45172;-51
2022/02/25 01:27:08;;;;;;;;;4.25;2.75;;;;;6.62;53.63;101946.09;5060757;28;45475;-52
2022/02/25 01:29:34;;;;;;;;;1.75;1.00;;;;;6.59;53.78;101946.00;5062126;28;45232;-51
2022/02/25 01:32:00;;;;;;;;;2.00;1.00;;;;;6.60;53.81;101947.75;5061767;28;45235;-51
2022/02/25 01:34:25;;;;;;;;;4.50;2.00;;;;;6.58;53.64;101947.75;5061997;28;45305;-51
2022/02/25 01:36:50;;;;;;;;;5.00;3.00;;;;;6.54;53.76;101948.53;5062142;28;45327;-51
2022/02/25 01:39:17;;;;;;;;;1.00;1.00;;;;;6.55;54.08;101941.56;5062019;28;45273;-50
2022/02/25 01:41:42;;;;;;;;;3.25;1.25;;;;;6.53;54.01;101949.38;5061956;28;45347;-51
2022/02/25 01:44:22;;;;;;;;;2.00;1.00;;;;;6.52;53.77;101946.75;5060460;28;46193;-51
2022/02/25 01:46:59;;;;;;;;;1.00;1.00;;;;;6.50;53.56;101955.41;5061612;28;45236;-49
2022/02/25 01:49:26;;;;;;;;;2.50;2.50;;;;;6.46;53.93;101950.94;5061745;28;45210;-50
2022/02/25 01:51:57;;;;;;;;;3.00;0.50;;;;;6.45;53.76;101962.28;5061589;28;45359;-52
2022/02/25 01:54:24;;;;;;;;;3.75;2.00;;;;;6.42;53.90;101962.19;5061460;28;46988;-50
2022/02/25 01:56:49;;;;;;;;;2.25;1.00;;;;;6.41;53.99;101951.72;5061361;28;45232;-47
2022/02/25 01:59:15;;;;;;;;;2.50;1.00;;;;;6.39;54.35;101951.69;5061882;28;45236;-49
2022/02/25 02:01:41;;;;;;;;;2.00;1.00;;;;;6.37;54.08;101955.97;5065177;28;45570;-47
2022/02/25 02:04:06;;;;;;;;;3.00;1.00;;;;;6.35;53.85;101952.44;5068496;28;45403;-51
2022/02/25 02:06:32;;;;;;;;;2.00;1.25;;;;;6.32;54.04;101949.78;5061305;28;45377;-50
2022/02/25 02:08:58;;;;;;;;;3.00;2.00;;;;;6.29;54.04;101954.91;5061392;28;45503;-48
2022/02/25 02:11:33;;;;;;;;;3.25;2.50;;;;;6.28;53.96;101953.16;5061365;28;45311;-51
2022/02/25 02:14:00;;;;;;;;;5.25;3.50;;;;;6.26;54.15;101965.28;5061294;28;46323;-51
2022/02/25 02:16:26;;;;;;;;;2.50;1.00;;;;;6.24;54.08;101961.75;5060054;28;45248;-48
2022/02/25 02:18:51;;;;;;;;;7.00;3.00;;;;;6.22;54.00;101961.72;5059795;28;45208;-48
2022/02/25 02:21:17;;;;;;;;;2.50;1.75;;;;;6.23;53.92;101952.19;5061292;28;45461;-48
2022/02/25 02:23:43;;;;;;;;;2.00;1.00;;;;;6.20;54.02;101949.47;5061126;28;46441;-51
2022/02/25 02:26:09;;;;;;;;;3.25;2.00;;;;;6.18;54.20;101952.06;5061168;28;45248;-50
2022/02/25 02:28:34;;;;;;;;;2.50;1.50;;;;;6.18;54.09;101962.50;5059946;28;45485;-48
2022/02/25 02:31:00;;;;;;;;;3.00;1.00;;;;;6.16;54.21;101951.13;5061138;28;45434;-51
2022/02/25 02:33:25;;;;;;;;;2.00;1.25;;;;;6.15;53.99;101945.06;5060752;28;46103;-50
2022/02/25 02:35:50;;;;;;;;;2.00;1.00;;;;;6.12;54.04;101950.19;5060989;28;45372;-50
2022/02/25 02:38:16;;;;;;;;;2.25;1.25;;;;;6.10;54.20;101951.00;5043067;28;45268;-49
2022/02/25 02:40:41;;;;;;;;;2.00;2.00;;;;;6.07;54.37;101946.59;5060837;28;45319;-47
2022/02/25 02:43:10;;;;;;;;;2.25;1.50;;;;;6.06;54.46;101957.00;5060908;28;46258;-50
2022/02/25 02:45:36;;;;;;;;;3.75;3.00;;;;;6.04;54.46;101951.75;5061053;28;45500;-48
2022/02/25 02:48:02;;;;;;;;;1.00;1.00;;;;;6.02;54.31;101953.44;5060670;28;45256;-50
2022/02/25 02:50:27;;;;;;;;;4.00;2.75;;;;;5.98;54.40;101946.34;5059744;28;45604;-47
2022/02/25 02:52:52;;;;;;;;;2.00;1.00;;;;;5.99;54.46;101954.22;5060686;28;45209;-50
2022/02/25 02:55:18;;;;;;;;;3.25;1.00;;;;;5.97;54.39;101955.88;5060334;28;45366;-47
2022/02/25 02:57:43;;;;;;;;;1.00;1.00;;;;;5.96;54.53;101951.53;5060796;28;45382;-47
2022/02/25 03:00:10;;;;;;;;;5.75;1.75;;;;;5.94;54.45;101957.56;5060735;28;45248;-46
2022/02/25 03:02:36;;;;;;;;;1.00;1.00;;;;;5.91;54.38;101955.75;5054460;28;47830;-51
2022/02/25 03:05:01;;;;;;;;;1.50;0.00;;;;;5.87;54.53;101951.28;5060432;28;45366;-48
2022/02/25 03:07:27;;;;;;;;;4.25;2.00;;;;;5.88;54.45;101955.66;5060594;28;45635;-47
2022/02/25 03:09:53;;;;;;;;;2.50;1.75;;;;;5.88;54.40;101949.56;5060362;28;45569;-46
2022/02/25 03:12:18;;;;;;;;;2.75;1.00;;;;;5.85;54.46;101956.47;5060696;28;45309;-51
2022/02/25 03:14:43;;;;;;;;;0.50;0.50;;;;;5.86;54.42;101958.25;5060518;28;45355;-49
2022/02/25 03:17:11;;;;;;;;;1.00;1.00;;;;;5.84;54.57;101959.06;5060554;28;45286;-51
2022/02/25 03:19:37;;;;;;;;;3.25;1.00;;;;;5.83;54.61;101959.88;5060220;28;45239;-51
2022/02/25 03:22:03;;;;;;;;;2.50;1.25;;;;;5.79;54.78;101956.31;5060317;28;45339;-47
2022/02/25 03:24:28;;;;;;;;;1.00;0.00;;;;;5.80;54.64;101965.91;5060275;28;45325;-48
2022/02/25 03:26:54;;;;;;;;;3.00;1.00;;;;;5.79;54.64;101958.06;5060248;28;45217;-46
2022/02/25 03:29:19;;;;;;;;;2.25;1.50;;;;;5.80;54.79;101962.44;5060307;28;45501;-49
2022/02/25 03:31:44;;;;;;;;;1.75;1.00;;;;;5.79;54.73;101965.88;5058732;28;46094;-47
2022/02/25 03:34:10;;;;;;;;;2.00;1.50;;;;;5.77;54.87;101972.78;5060237;28;45248;-46
2022/02/25 03:36:35;;;;;;;;;3.75;1.75;;;;;5.78;54.73;101970.19;5060517;28;45226;-46
2022/02/25 03:39:00;;;;;;;;;1.00;1.00;;;;;5.78;54.72;101962.38;5060107;28;45248;-49
2022/02/25 03:41:26;;;;;;;;;1.75;1.00;;;;;5.80;54.72;101980.69;5059953;28;45977;-48
2022/02/25 03:43:52;;;;;;;;;3.75;1.25;;;;;5.81;54.51;101980.72;5060046;28;45369;-50
2022/02/25 03:46:18;;;;;;;;;1.00;1.00;;;;;5.80;54.70;101973.75;5060199;28;45291;-48
2022/02/25 03:48:43;;;;;;;;;3.25;1.00;;;;;5.82;54.80;101972.06;5059744;28;45319;-48
2022/02/25 03:51:09;;;;;;;;;1.00;1.00;;;;;5.81;54.79;101979.84;5059783;28;46260;-47
2022/02/25 03:53:34;;;;;;;;;1.25;1.25;;;;;5.83;54.76;101976.41;5060045;28;45319;-50
2022/02/25 03:55:59;;;;;;;;;2.50;2.00;;;;;5.82;54.82;101977.28;5059961;28;45597;-48
2022/02/25 03:58:25;;;;;;;;;3.25;1.50;;;;;5.82;54.88;101977.28;5059999;28;45310;-50
2022/02/25 04:00:50;;;;;;;;;2.75;2.50;;;;;5.82;54.60;101977.28;5059831;28;45285;-48
2022/02/25 04:03:15;;;;;;;;;1.75;1.75;;;;;5.82;55.10;101990.31;5071129;28;45364;-52
2022/02/25 04:05:41;;;;;;;;;3.25;2.00;;;;;5.81;54.90;101999.00;5060172;28;45268;-48
2022/02/25 04:08:06;;;;;;;;;3.50;2.00;;;;;5.81;55.01;102000.69;5062040;28;45216;-50
2022/02/25 04:10:33;;;;;;;;;4.50;3.50;;;;;5.78;54.79;102004.13;5061939;28;46209;-48
2022/02/25 04:12:58;;;;;;;;;2.50;1.75;;;;;5.78;54.94;102008.47;5063207;28;45240;-49
2022/02/25 04:15:24;;;;;;;;;1.25;1.25;;;;;5.78;55.07;102003.25;5063401;28;45399;-49
2022/02/25 04:17:49;;;;;;;;;4.00;2.00;;;;;5.76;54.93;102005.81;5061523;28;45402;-49
2022/02/25 04:20:15;;;;;;;;;2.75;1.00;;;;;5.74;55.05;102012.72;5063231;28;47066;-49
2022/02/25 04:22:40;;;;;;;;;3.00;3.00;;;;;5.72;55.18;102016.13;5062959;28;45443;-52
2022/02/25 04:25:06;;;;;;;;;2.50;0.75;;;;;5.70;55.14;102013.47;5063289;28;45888;-50
2022/02/25 04:27:32;;;;;;;;;2.75;1.75;;;;;5.70;55.03;102013.47;5062952;28;45380;-51
2022/02/25 04:29:57;;;;;;;;;4.00;2.75;;;;;5.69;55.22;102014.31;5062954;28;46259;-49
2022/02/25 04:32:22;;;;;;;;;2.25;1.00;;;;;5.69;55.32;102016.94;5062532;28;45325;-50
2022/02/25 04:34:48;;;;;;;;;1.25;0.75;;;;;5.67;55.08;102024.72;5063286;28;45397;-49
2022/02/25 04:37:14;;;;;;;;;3.00;1.00;;;;;5.64;55.11;102029.84;5061690;28;45351;-50
2022/02/25 04:39:40;;;;;;;;;7.25;1.25;;;;;5.65;55.20;102026.41;5061293;28;46452;-47
2022/02/25 04:42:05;;;;;;;;;3.00;1.75;;;;;5.65;55.20;102033.34;5061533;28;45332;-52
2022/02/25 04:44:31;;;;;;;;;2.00;1.00;;;;;5.63;55.34;102032.41;5062877;28;45255;-51
2022/02/25 04:46:56;;;;;;;;;3.50;1.00;;;;;5.63;55.25;102038.50;5061207;28;45854;-47
2022/02/25 04:49:21;;;;;;;;;1.25;1.00;;;;;5.62;55.45;102048.91;5062751;28;45211;-47
2022/02/25 04:51:47;;;;;;;;;2.50;1.00;;;;;5.60;55.18;102046.25;5062611;28;45224;-48
2022/02/25 04:54:12;;;;;;;;;2.75;2.00;;;;;5.62;55.31;102046.28;5062924;28;45228;-48
2022/02/25 04:56:38;;;;;;;;;1.50;1.50;;;;;5.62;55.32;102035.84;5062472;28;45308;-50
2022/02/25 04:59:03;;;;;;;;;4.00;1.00;;;;;5.61;55.43;102044.50;5061283;28;46894;-51
2022/02/25 05:01:29;;;;;;;;;2.00;2.00;;;;;5.59;55.39;102041.88;5065823;28;45141;-51
2022/02/25 05:03:54;;;;;;;;;7.75;1.00;;;;;5.50;55.30;102029.47;5070907;28;45299;-47
2022/02/25 05:06:19;;;;;;;;;4.50;2.75;;;;;5.55;55.33;102034.81;5062362;28;45284;-45
2022/02/25 05:08:45;;;;;;;;;2.75;1.75;;;;;5.58;55.63;102053.16;5062213;28;45426;-49
2022/02/25 05:11:11;;;;;;;;;6.75;1.50;;;;;5.56;55.53;102043.50;5062329;28;45492;-47
2022/02/25 05:13:36;;;;;;;;;4.00;2.00;;;;;5.56;55.64;102041.81;5062591;28;45357;-51
2022/02/25 05:21:30;;;;;;;;;1.50;1.25;;;;;5.55;55.60;102055.69;5051195;28;45292;-47
2022/02/25 05:23:56;;;;;;;;;1.75;1.25;;;;;5.54;55.72;102060.00;5062081;28;45450;-48
2022/02/25 05:26:22;;;;;;;;;1.00;1.00;;;;;5.55;55.59;102063.50;5062554;28;45272;-49
2022/02/25 05:28:48;;;;;;;;;1.75;1.50;;;;;5.56;55.45;102072.19;5061933;28;46196;-48
2022/02/25 05:31:15;;;;;;;;;1.00;1.00;;;;;5.53;55.66;102073.91;5062068;28;45326;-47
2022/02/25 05:33:40;;;;;;;;;4.00;2.75;;;;;5.51;55.50;102062.53;5061771;28;45331;-48
2022/02/25 05:36:06;;;;;;;;;1.50;1.00;;;;;5.51;55.55;102072.97;5062014;28;45206;-48
2022/02/25 05:38:31;;;;;;;;;3.00;2.00;;;;;5.51;55.71;102070.34;5062178;28;45220;-46
2022/02/25 05:40:56;;;;;;;;;6.50;3.25;;;;;5.51;55.70;102075.56;5061769;28;45272;-47
2022/02/25 05:43:22;;;;;;;;;6.75;4.00;;;;;5.53;55.89;102079.13;5061946;28;45197;-45
2022/02/25 05:45:47;;;;;;;;;3.00;3.00;;;;;5.56;55.56;102082.63;5061932;28;45575;-47
2022/02/25 05:48:12;;;;;;;;;1.75;1.00;;;;;5.57;55.70;102079.19;5061539;28;46250;-46
2022/02/25 05:50:38;;;;;;;;;2.25;2.00;;;;;5.56;55.66;102078.31;5061810;28;45225;-45
2022/02/25 05:53:04;;;;;;;;;6.50;5.00;;;;;5.59;55.80;102075.78;5061940;28;45306;-46
2022/02/25 05:55:30;;;;;;;;;2.75;2.00;;;;;5.62;55.39;102080.19;5061767;28;46438;-48
2022/02/25 05:57:55;;;;;;;;;2.75;1.50;;;;;5.63;55.73;102079.34;5061545;28;45898;-45
2022/02/25 06:00:21;;;;;;;;;3.25;2.75;;;;;5.62;55.75;102081.09;5061664;28;45276;-48
2022/02/25 06:02:48;;;;;;;;;3.00;2.00;;;;;5.65;55.41;102088.13;5073174;28;45385;-45
2022/02/25 06:05:14;;;;;;;;;1.25;1.00;;;;;5.66;55.56;102095.06;5061717;28;45470;-49
2022/02/25 06:07:40;;;;;;;;;7.50;3.00;;;;;5.64;55.78;102092.44;5059892;28;46296;-48
2022/02/25 06:10:07;;;;;;;;;3.25;1.00;;;;;5.66;55.60;102103.81;5061322;28;45254;-46
2022/02/25 06:12:32;;;;;;;;;3.25;2.00;;;;;5.67;55.86;102108.19;5060145;28;45296;-47
2022/02/25 06:14:58;;;;;;;;;6.00;2.00;;;;;5.67;55.63;102113.41;5060025;28;45490;-46
2022/02/25 06:17:23;;;;;;;;;3.75;3.00;;;;;5.66;55.61;102111.63;5071646;28;45498;-45
2022/02/25 06:19:48;;;;;;;;;3.50;2.00;;;;;5.65;55.88;102104.63;5060742;28;45392;-47
2022/02/25 06:22:14;;;;;;;;;6.25;1.75;;;;;5.65;55.82;102124.63;5059872;28;45316;-48
2022/02/25 06:24:40;;;;;;;;;3.25;1.00;;;;;5.60;55.88;102121.03;5047366;28;45574;-45
2022/02/25 06:27:05;;;;;;;;;2.00;2.00;;;;;5.59;56.06;102121.84;5051500;28;45326;-48
2022/02/25 06:29:31;;;;;;;;;1.00;1.00;;;;;5.60;56.10;102115.81;5060344;28;45265;-51
2022/02/25 06:31:57;;;;;;;;;2.50;1.00;;;;;5.58;55.86;102120.06;5059091;28;45337;-47
2022/02/25 06:34:22;;;;;;;;;5.25;2.50;;;;;5.58;55.85;102117.47;5061080;28;45306;-47
2022/02/25 06:36:48;;;;;;;;;2.25;2.25;;;;;5.57;56.09;102118.31;5060521;28;46445;-46
2022/02/25 06:39:13;;;;;;;;;4.00;3.00;;;;;5.55;55.67;102131.31;5060496;28;45383;-49
2022/02/25 06:41:39;;;;;;;;;3.50;1.50;;;;;5.56;55.97;102129.56;5050428;28;45752;-48
2022/02/25 06:44:05;;;;;;;;;3.00;2.00;;;;;5.52;55.90;102137.31;5060909;28;45319;-49
2022/02/25 06:46:31;;;;;;;;;6.00;1.75;;;;;5.49;55.68;102136.34;5060156;28;45370;-49
2022/02/25 06:48:56;;;;;;;;;4.00;2.25;;;;;5.45;56.02;102140.59;5060808;28;45394;-50
2022/02/25 06:51:21;;;;;;;;;4.00;2.75;;;;;5.46;56.10;102159.69;5060589;28;45308;-47
2022/02/25 06:53:47;;;;;;;;;7.50;4.00;;;;;5.42;55.86;102158.75;5060576;28;45209;-49
2022/02/25 06:56:12;;;;;;;;;4.00;3.25;;;;;5.41;56.03;102164.81;5093016;27;45311;-50
2022/02/25 06:58:38;;;;;;;;;3.50;3.25;;;;;5.40;56.22;102167.38;5059447;28;45465;-48
2022/02/25 07:01:05;;;;;;;;;5.50;2.75;;;;;5.39;56.17;102158.66;5060378;28;45291;-48
2022/02/25 07:03:31;;;;;;;;;4.00;4.00;;;;;5.37;56.31;102160.31;5060387;28;45516;-47
2022/02/25 07:05:56;;;;;;;;;6.75;3.00;;;;;5.35;56.42;102156.78;5054476;28;45525;-50
2022/02/25 07:08:22;;;;;;;;;4.75;3.00;;;;;5.32;56.42;102156.69;5060077;28;45253;-47
2022/02/25 07:10:48;;;;;;;;;5.50;2.75;;;;;5.35;56.38;102159.41;5058799;28;45470;-46
2022/02/25 07:13:14;;;;;;;;;10.00;4.75;;;;;5.35;56.37;102162.88;5058981;28;45281;-46
2022/02/25 07:15:40;;;;;;;;;7.75;3.00;;;;;5.33;56.16;102161.06;5058766;28;47775;-48
2022/02/25 07:18:08;;;;;;;;;7.00;4.00;;;;;5.33;56.55;102166.28;5059823;28;45414;-48
2022/02/25 07:20:34;;;;;;;;;6.25;3.75;;;;;5.32;56.51;102175.84;5042434;28;45259;-49
2022/02/25 07:22:59;;;;;;;;;4.50;3.00;;;;;5.28;56.20;102168.78;5060079;28;45467;-48
2022/02/25 07:25:25;;;;;;;;;6.25;3.00;;;;;5.29;56.60;102169.66;5059651;28;46222;-47
2022/02/25 07:27:51;;;;;;;;;2.25;2.25;;;;;5.29;56.61;102167.91;5060151;28;45286;-48
2022/02/25 07:30:17;;;;;;;;;8.00;2.50;;;;;5.29;56.54;102167.91;5060037;28;45341;-47
2022/02/25 07:32:42;;;;;;;;;6.25;5.25;;;;;5.26;56.69;102164.31;5058532;28;45489;-48
2022/02/25 07:35:11;;;;;;;;;8.00;6.75;;;;;5.29;56.61;102170.50;5059427;28;46186;-46
2022/02/25 07:37:37;;;;;;;;;3.50;3.50;;;;;5.30;56.54;102166.22;5060178;28;45254;-47
2022/02/25 07:40:04;;;;;;;;;4.00;4.00;;;;;5.30;56.75;102172.28;5060056;28;45699;-51
2022/02/25 07:42:30;;;;;;;;;4.75;3.25;;;;;5.33;56.67;102168.88;5058753;28;45411;-51
2022/02/25 07:44:56;;;;;;;;;6.50;5.25;;;;;5.32;56.85;102165.41;5071549;27;46298;-46
2022/02/25 07:47:22;;;;;;;;;6.50;6.00;;;;;5.31;57.25;102170.59;5058579;28;45383;-49
2022/02/25 07:49:48;;;;;;;;;6.00;6.00;;;;;5.32;56.88;102168.03;5059910;28;45286;-48
2022/02/25 07:52:14;;;;;;;;;5.00;4.50;;;;;5.32;57.00;102168.03;5059757;28;45281;-47
2022/02/25 07:54:40;;;;;;;;;7.25;6.25;;;;;5.33;56.73;102169.78;5059565;28;46193;-47
2022/02/25 07:57:05;;;;;;;;;7.00;6.25;;;;;5.36;56.83;102172.47;5059807;28;45326;-48
2022/02/25 07:59:31;;;;;;;;;7.50;5.75;;;;;5.37;56.84;102171.66;5059888;28;45858;-47
2022/02/25 08:01:56;;;;;;;;;7.25;6.00;;;;;5.38;56.97;102188.16;5066970;28;45260;-50
2022/02/25 08:04:22;;;;;;;;;6.75;4.25;;;;;5.36;57.05;102188.13;5063538;28;46019;-47
2022/02/25 08:06:47;;;;;;;;;4.75;3.50;;;;;5.39;57.01;102195.16;5059589;28;45225;-47
2022/02/25 08:09:13;;;;;;;;;6.75;3.25;;;;;5.38;56.94;102198.59;5059581;28;45286;-51
2022/02/25 08:11:39;;;;;;;;;8.50;7.75;;;;;5.40;57.31;102212.56;5058431;28;45458;-48
2022/02/25 08:14:05;;;;;;;;;6.75;4.75;;;;;5.40;57.01;102204.75;5057912;28;47491;-50
2022/02/25 08:16:30;;;;;;;;;7.50;6.25;;;;;5.44;56.85;102204.00;5059494;28;45216;-49
2022/02/25 08:18:55;;;;;;;;;12.00;6.50;;;;;5.45;57.09;102207.50;5059482;28;45252;-49
2022/02/25 08:21:21;;;;;;;;;8.25;4.00;;;;;5.50;56.97;102205.91;5058454;28;45154;-49
2022/02/25 08:23:46;;;;;;;;;6.75;4.00;;;;;5.50;57.18;102206.78;5059413;28;45776;-47
2022/02/25 08:26:11;;;;;;;;;3.50;3.00;;;;;5.58;57.31;102221.78;5059327;28;45354;-48
2022/02/25 08:28:37;;;;;;;;;5.00;4.00;;;;;5.63;57.20;102212.38;5059526;28;45288;-47
2022/02/25 08:31:03;;;;;;;;;8.25;5.25;;;;;5.66;57.01;102210.75;5059317;28;45579;-48
2022/02/25 08:33:29;;;;;;;;;10.50;7.75;;;;;5.71;57.34;102213.50;5059049;28;45413;-47
2022/02/25 08:35:54;;;;;;;;;7.00;7.00;;;;;5.79;57.25;102226.78;5058193;28;45348;-49
2022/02/25 08:38:20;;;;;;;;;8.00;6.00;;;;;5.83;57.34;102224.28;5059328;28;45308;-49
2022/02/25 08:40:46;;;;;;;;;4.25;4.25;;;;;5.89;57.34;102222.69;5059204;28;45341;-48
2022/02/25 08:43:12;;;;;;;;;8.00;6.75;;;;;5.95;57.36;102228.97;5059041;28;45577;-48
2022/02/25 08:45:41;;;;;;;;;5.00;4.00;;;;;6.02;57.29;102230.06;5059370;28;45431;-47
2022/02/25 08:48:07;;;;;;;;;8.25;7.00;;;;;6.10;57.32;102219.81;5058985;28;45257;-47
2022/02/25 08:50:33;;;;;;;;;8.25;8.25;;;;;6.18;57.54;102229.63;5057750;28;45509;-46
2022/02/25 08:52:58;;;;;;;;;8.75;7.75;;;;;6.25;57.42;102232.44;5059864;28;46235;-46
2022/02/25 08:55:24;;;;;;;;;9.75;5.00;;;;;6.36;57.32;102236.22;5062550;28;45358;-48
2022/02/25 08:57:49;;;;;;;;;7.50;5.75;;;;;6.44;57.43;102239.03;5062611;28;45485;-48
2022/02/25 09:00:22;;;;;;;;;10.00;4.00;;;;;6.53;57.30;102247.13;5062730;28;45256;-47
2022/02/25 09:02:49;;;;;;;;;11.50;5.50;;;;;6.63;57.44;102245.66;5074991;28;46125;-47
2022/02/25 09:05:16;;;;;;;;;6.75;3.25;;;;;6.71;57.48;102248.47;5062367;28;45350;-47
2022/02/25 09:07:41;;;;;;;;;6.25;3.50;;;;;6.80;57.40;102246.94;5062468;28;45232;-51
2022/02/25 09:10:08;;;;;;;;;9.75;6.25;;;;;6.91;57.36;102249.84;5062089;28;45531;-47
2022/02/25 09:12:35;;;;;;;;;8.75;5.00;;;;;7.04;57.25;102258.84;5062473;28;46348;-49
2022/02/25 09:15:03;;;;;;;;;3.00;3.00;;;;;7.14;57.26;102254.75;5062105;28;45256;-51
2022/02/25 09:17:29;;;;;;;;;3.50;2.25;;;;;7.22;57.24;102253.22;5060859;28;45458;-49
2022/02/25 09:19:54;;;;;;;;;3.00;3.00;;;;;7.37;57.34;102259.63;5062111;28;46218;-49
2022/02/25 09:22:19;;;;;;;;;6.75;3.50;;;;;7.46;57.37;102260.75;5062479;28;46358;-47
2022/02/25 09:24:45;;;;;;;;;4.00;2.75;;;;;7.54;57.61;102260.03;5060530;28;45280;-52
2022/02/25 09:27:10;;;;;;;;;9.50;2.25;;;;;7.68;57.43;102270.81;5062485;28;45311;-51
2022/02/25 09:29:36;;;;;;;;;4.25;3.00;;;;;7.78;57.32;102271.03;5060453;28;45608;-52
2022/02/25 09:32:03;;;;;;;;;6.00;3.75;;;;;7.91;57.12;102279.16;5061852;28;45350;-52
2022/02/25 09:34:28;;;;;;;;;5.75;2.75;;;;;8.00;57.31;102284.59;5061935;28;45240;-52
2022/02/25 09:36:54;;;;;;;;;3.00;3.00;;;;;8.11;56.89;102290.03;5062014;28;45407;-47
2022/02/25 09:39:20;;;;;;;;;3.50;1.25;;;;;8.21;57.28;102288.50;5060501;28;45281;-50
2022/02/25 09:41:48;;;;;;;;;4.25;3.75;;;;;8.28;57.20;102285.16;5062109;28;46137;-51
2022/02/25 09:44:14;;;;;;;;;4.75;3.50;;;;;8.40;57.09;102281.88;5061798;28;45410;-47
2022/02/25 09:46:40;;;;;;;;;2.50;2.50;;;;;8.52;57.08;102284.78;5060330;28;45301;-47
2022/02/25 09:49:06;;;;;;;;;4.75;3.75;;;;;8.62;57.05;102285.84;5061863;28;45269;-49
2022/02/25 09:51:31;;;;;;;;;3.25;3.25;;;;;8.74;56.96;102296.56;5061683;28;46156;-49
2022/02/25 09:53:56;;;;;;;;;6.25;3.50;;;;;8.84;56.95;102300.25;5061455;28;45311;-50
2022/02/25 09:56:25;;;;;;;;;7.00;4.50;;;;;8.91;56.94;102309.97;5062035;28;45296;-47
2022/02/25 09:58:51;;;;;;;;;4.75;2.00;;;;;9.02;56.76;102304.91;5060262;28;45788;-56
2022/02/25 10:01:18;;;;;;;;;5.00;2.75;;;;;9.17;56.55;102304.28;5062951;28;46141;-47
2022/02/25 10:03:50;;;;;;;;;4.00;2.00;;;;;9.28;56.50;102322.81;5061936;27;45462;-49
2022/02/25 10:06:15;;;;;;;;;5.00;2.25;;;;;9.33;56.46;102310.66;5059262;28;45501;-49
2022/02/25 10:08:41;;;;;;;;;4.25;3.50;;;;;9.43;56.53;102309.97;5061352;28;45226;-47
2022/02/25 10:11:06;;;;;;;;;5.25;3.50;;;;;9.53;56.44;102328.47;5061044;28;46220;-50
2022/02/25 10:13:34;;;;;;;;;8.00;2.75;;;;;9.63;56.46;102316.38;5061662;28;45343;-48
2022/02/25 10:16:03;;;;;;;;;4.75;3.00;;;;;9.74;56.37;102327.91;5061527;28;45379;-50
2022/02/25 10:18:32;;;;;;;;;7.00;3.00;;;;;9.87;56.56;102318.47;5061355;28;45246;-51
2022/02/25 10:21:01;;;;;;;;;4.50;3.50;;;;;10.01;56.49;102322.16;5059872;28;45524;-47
2022/02/25 10:23:31;;;;;;;;;3.00;2.50;;;;;10.14;56.59;102324.94;5061211;28;45320;-49
2022/02/25 10:26:07;;;;;;;;;2.75;2.00;;;;;10.28;56.46;102322.50;5061109;28;45414;-50
2022/02/25 10:28:34;;;;;;;;;2.25;2.00;;;;;10.42;56.52;102327.97;5061162;28;45509;-49
2022/02/25 10:31:20;;;;;;;;;8.00;2.25;;;;;10.54;56.28;102334.22;5059532;28;48854;-50
2022/02/25 10:33:59;;;;;;;;;5.25;2.00;;;;;10.67;56.23;102329.97;5061005;28;45469;-53
2022/02/25 10:36:35;;;;;;;;;3.75;2.75;;;;;10.79;56.03;102334.50;5061249;28;45235;-49
2022/02/25 10:39:00;;;;;;;;;6.50;3.25;;;;;10.86;55.88;102341.56;5060824;28;45456;-47
2022/02/25 10:41:26;;;;;;;;;5.00;3.75;;;;;10.95;55.84;102342.53;5060876;28;46369;-47
2022/02/25 10:43:51;;;;;;;;;4.00;3.50;;;;;10.99;55.67;102332.06;5060706;28;45343;-50
2022/02/25 10:46:22;;;;;;;;;4.00;2.00;;;;;11.05;55.73;102326.84;5059506;28;45344;-48
2022/02/25 10:48:47;;;;;;;;;4.00;4.00;;;;;11.11;55.97;102326.03;5060890;28;45221;-48
2022/02/25 10:51:22;;;;;;;;;3.75;2.25;;;;;11.16;55.32;102329.56;5060630;28;45343;-48
2022/02/25 10:53:52;;;;;;;;;4.75;3.75;;;;;11.21;55.60;102338.38;5059372;28;45264;-47
2022/02/25 10:56:21;;;;;;;;;7.50;1.75;;;;;11.28;55.66;102330.56;5060917;28;45247;-46
2022/02/25 10:58:55;;;;;;;;;4.00;2.00;;;;;11.32;55.44;102329.69;5060618;28;45482;-50
2022/02/25 11:01:23;;;;;;;;;2.00;1.00;;;;;11.36;55.40;102334.13;5062697;28;46133;-51
2022/02/25 11:04:13;;;;;;;;;2.75;2.75;;;;;11.43;55.28;102330.66;5060637;28;45145;-47
2022/02/25 11:06:41;;;;;;;;;3.75;2.75;;;;;11.51;55.29;102333.38;5059108;28;45362;-55
2022/02/25 11:09:06;;;;;;;;;3.50;3.50;;;;;11.59;55.16;102330.78;5060426;28;45391;-47
2022/02/25 11:11:36;;;;;;;;;2.50;1.00;;;;;11.65;55.14;102346.63;5060382;28;46430;-48
2022/02/25 11:14:04;;;;;;;;;2.25;2.00;;;;;11.74;55.18;102344.06;5060545;28;45329;-52
2022/02/25 11:16:31;;;;;;;;;4.00;2.75;;;;;11.80;54.97;102337.97;5059946;28;45332;-50
2022/02/25 11:18:59;;;;;;;;;4.00;2.00;;;;;11.83;54.72;102343.22;5060426;28;45343;-45
2022/02/25 11:21:25;;;;;;;;;3.50;2.00;;;;;11.87;54.68;102330.09;5060251;28;46602;-52
2022/02/25 11:23:51;;;;;;;;;2.25;0.00;;;;;11.93;54.56;102339.78;5060179;28;45244;-53
2022/02/25 11:26:19;;;;;;;;;4.75;2.50;;;;;11.94;54.94;102338.91;5060300;28;45322;-50
2022/02/25 11:28:47;;;;;;;;;5.00;4.75;;;;;11.98;54.56;102348.63;5060328;28;45285;-49
2022/02/25 11:31:21;;;;;;;;;4.50;3.00;;;;;12.01;54.41;102348.66;5059818;28;45259;-49
2022/02/25 11:33:54;;;;;;;;;4.00;3.00;;;;;12.04;54.60;102339.88;5060209;28;45311;-50